Time;durP1;ratioP1;P1;durP2;ratioP2;P2;SDS_P1;SDS_P2;PMS_P1;PMS_P2;Temp;Humidity;BMP_temperature;BMP_pressure;BME280_temperature;BME280_humidity;BME280_pressure;Samples;Min_cycle;Max_cycle;Signal;HPM_P1;HPM_P2
2023/02/11 00:00:36;;;;;;;40.43;33.30;;;;;;;;;;4939622;28;20234;-77
2023/02/11 00:03:04;;;;;;;39.13;33.43;;;;;;;;;;4939842;29;20658;-76
2023/02/11 00:05:30;;;;;;;37.60;31.90;;;;;;;;;;4962309;28;20226;-77
2023/02/11 00:07:55;;;;;;;38.77;33.40;;;;;;;;;;4974198;28;20226;-76
2023/02/11 00:10:21;;;;;;;40.80;33.67;;;;;;;;;;4962587;28;20411;-76
2023/02/11 00:12:47;;;;;;;41.07;34.00;;;;;;;;;;4980235;28;20218;-77
2023/02/11 00:15:12;;;;;;;42.10;34.00;;;;;;;;;;4973668;28;20228;-77
2023/02/11 00:17:42;;;;;;;38.07;33.93;;;;;;;;;;4956569;28;20226;-76
2023/02/11 00:20:08;;;;;;;41.73;34.63;;;;;;;;;;4971935;28;20226;-76
2023/02/11 00:22:37;;;;;;;44.30;35.20;;;;;;;;;;4951376;28;20237;-77
2023/02/11 00:25:05;;;;;;;40.13;33.20;;;;;;;;;;4975605;28;20618;-78
2023/02/11 00:27:35;;;;;;;38.87;34.30;;;;;;;;;;4972522;28;20225;-77
2023/02/11 00:30:04;;;;;;;42.00;33.53;;;;;;;;;;4954885;28;20233;-76
2023/02/11 00:32:31;;;;;;;47.37;35.10;;;;;;;;;;4967781;28;20669;-77
2023/02/11 00:34:57;;;;;;;41.60;34.47;;;;;;;;;;4958492;28;20226;-77
2023/02/11 00:37:22;;;;;;;39.40;34.57;;;;;;;;;;4961253;28;21210;-77
2023/02/11 00:39:53;;;;;;;41.50;34.97;;;;;;;;;;4959699;28;20231;-77
2023/02/11 00:42:21;;;;;;;37.00;33.03;;;;;;;;;;4935627;28;20220;-78
2023/02/11 00:44:46;;;;;;;41.27;35.67;;;;;;;;;;4948685;28;20309;-78
2023/02/11 00:47:15;;;;;;;41.87;34.17;;;;;;;;;;4972009;28;20305;-76
2023/02/11 00:49:45;;;;;;;43.37;34.30;;;;;;;;;;4956635;28;20745;-76
2023/02/11 00:52:14;;;;;;;42.03;34.37;;;;;;;;;;4956276;28;20223;-76
2023/02/11 00:54:42;;;;;;;43.17;36.30;;;;;;;;;;4987348;28;20318;-77
2023/02/11 00:57:14;;;;;;;39.43;34.57;;;;;;;;;;4962845;28;20305;-77
2023/02/11 00:59:40;;;;;;;37.90;33.80;;;;;;;;;;4966569;28;20241;-77
2023/02/11 01:02:08;;;;;;;38.13;33.93;;;;;;;;;;4991111;28;20734;-77
2023/02/11 01:04:36;;;;;;;42.17;34.93;;;;;;;;;;4973394;28;20779;-78
2023/02/11 01:07:02;;;;;;;40.97;35.20;;;;;;;;;;4967385;28;20273;-78
2023/02/11 01:09:28;;;;;;;42.40;35.57;;;;;;;;;;4952625;28;20849;-77
2023/02/11 01:11:53;;;;;;;43.67;35.53;;;;;;;;;;4940810;28;20230;-77
2023/02/11 01:14:22;;;;;;;43.63;35.07;;;;;;;;;;4949507;28;20226;-78
2023/02/11 01:16:55;;;;;;;39.10;33.50;;;;;;;;;;4970043;28;20253;-77
2023/02/11 01:19:20;;;;;;;42.60;34.73;;;;;;;;;;4954752;28;20577;-76
2023/02/11 01:21:46;;;;;;;41.83;34.87;;;;;;;;;;4953817;28;20229;-77
2023/02/11 01:24:14;;;;;;;40.47;33.97;;;;;;;;;;4935751;28;20237;-77
2023/02/11 01:26:43;;;;;;;44.47;35.87;;;;;;;;;;4970499;28;20244;-77
2023/02/11 01:29:13;;;;;;;43.13;36.47;;;;;;;;;;4954788;28;20228;-77
2023/02/11 01:31:41;;;;;;;42.17;34.20;;;;;;;;;;4941514;28;20645;-78
2023/02/11 01:34:09;;;;;;;38.43;33.97;;;;;;;;;;4951146;28;20222;-77
2023/02/11 01:36:36;;;;;;;41.37;33.20;;;;;;;;;;4962332;28;20230;-78
2023/02/11 01:39:01;;;;;;;41.13;32.50;;;;;;;;;;4941344;28;20296;-76
2023/02/11 01:41:29;;;;;;;39.63;33.27;;;;;;;;;;4956125;28;20232;-78
2023/02/11 01:43:56;;;;;;;42.53;34.27;;;;;;;;;;4971221;28;20225;-78
2023/02/11 01:46:39;;;;;;;41.03;33.03;;;;;;;;;;4955145;28;20631;-77
2023/02/11 01:49:20;;;;;;;39.53;32.80;;;;;;;;;;4953681;28;20237;-77
2023/02/11 01:52:16;;;;;;;46.60;37.33;;;;;;;;;;4973789;28;20236;-78
2023/02/11 01:57:33;;;;;;;40.27;33.07;;;;;;;;;;4957790;28;20226;-77
2023/02/11 02:00:21;;;;;;;38.20;33.00;;;;;;;;;;4956431;28;20241;-77
2023/02/11 02:03:01;;;;;;;38.50;32.47;;;;;;;;;;4975582;28;20233;-77
2023/02/11 02:05:37;;;;;;;36.47;31.30;;;;;;;;;;4975944;28;20695;-77
2023/02/11 02:08:10;;;;;;;41.63;32.20;;;;;;;;;;4959578;28;20225;-77
2023/02/11 02:10:43;;;;;;;41.27;32.37;;;;;;;;;;4977531;28;20319;-78
2023/02/11 02:13:13;;;;;;;35.67;31.27;;;;;;;;;;4959256;28;20615;-78
2023/02/11 02:15:54;;;;;;;37.70;31.40;;;;;;;;;;4961172;28;20258;-79
2023/02/11 02:18:50;;;;;;;34.93;30.17;;;;;;;;;;4974591;28;20226;-77
2023/02/11 02:21:53;;;;;;;39.57;29.63;;;;;;;;;;4983028;28;20280;-78
2023/02/11 02:24:24;;;;;;;38.00;30.80;;;;;;;;;;4970077;28;20222;-76
2023/02/11 02:27:20;;;;;;;34.03;30.37;;;;;;;;;;4973052;28;20237;-77
2023/02/11 02:29:54;;;;;;;37.27;29.57;;;;;;;;;;4971769;28;20236;-78
2023/02/11 02:32:31;;;;;;;37.57;30.67;;;;;;;;;;4973184;28;20300;-77
2023/02/11 02:35:09;;;;;;;37.13;32.07;;;;;;;;;;4973275;28;20234;-77
2023/02/11 02:38:02;;;;;;;37.23;30.80;;;;;;;;;;4961818;28;20225;-77
2023/02/11 02:40:35;;;;;;;36.37;30.80;;;;;;;;;;4972448;28;20217;-77
2023/02/11 02:43:01;;;;;;;37.83;31.07;;;;;;;;;;4964539;28;20230;-77
2023/02/11 02:45:31;;;;;;;40.23;31.60;;;;;;;;;;4958212;28;20241;-77
2023/02/11 02:47:57;;;;;;;34.40;30.63;;;;;;;;;;4971108;28;20316;-77
2023/02/11 02:50:30;;;;;;;36.47;31.40;;;;;;;;;;4941084;28;20714;-78
2023/02/11 02:53:05;;;;;;;37.50;30.40;;;;;;;;;;4966687;28;20222;-78
2023/02/11 02:55:37;;;;;;;39.27;30.13;;;;;;;;;;4972862;28;20275;-77
2023/02/11 02:58:12;;;;;;;33.53;29.30;;;;;;;;;;4971902;28;20226;-77
2023/02/11 03:00:52;;;;;;;36.70;31.20;;;;;;;;;;4971123;28;20233;-78
2023/02/11 03:03:42;;;;;;;35.80;30.83;;;;;;;;;;4973280;28;20218;-77
2023/02/11 03:06:28;;;;;;;36.20;29.30;;;;;;;;;;4959955;28;20598;-76
2023/02/11 03:09:02;;;;;;;34.80;30.47;;;;;;;;;;4940465;28;20227;-76
2023/02/11 03:11:30;;;;;;;34.77;30.23;;;;;;;;;;4950184;28;20600;-76
2023/02/11 03:13:55;;;;;;;35.43;29.10;;;;;;;;;;4937140;28;20226;-77
2023/02/11 03:16:26;;;;;;;39.97;32.23;;;;;;;;;;4931727;28;20596;-76
2023/02/11 03:19:00;;;;;;;40.27;31.67;;;;;;;;;;4954869;28;20225;-77
2023/02/11 03:21:26;;;;;;;35.67;28.53;;;;;;;;;;4957395;28;20537;-77
2023/02/11 03:23:53;;;;;;;42.20;31.60;;;;;;;;;;4955754;28;20737;-77
2023/02/11 03:26:44;;;;;;;39.73;30.03;;;;;;;;;;4923499;28;20246;-77
2023/02/11 03:29:17;;;;;;;35.47;28.17;;;;;;;;;;4952961;28;20280;-77
2023/02/11 03:32:21;;;;;;;35.87;30.60;;;;;;;;;;4967980;28;20778;-77
2023/02/11 03:35:01;;;;;;;33.90;29.87;;;;;;;;;;4914044;29;20235;-77
2023/02/11 03:37:43;;;;;;;39.53;30.50;;;;;;;;;;4965879;28;20678;-76
2023/02/11 03:40:10;;;;;;;34.50;28.33;;;;;;;;;;4965198;28;20288;-77
2023/02/11 03:42:48;;;;;;;35.97;28.83;;;;;;;;;;4973446;28;20229;-77
2023/02/11 03:45:15;;;;;;;37.90;29.27;;;;;;;;;;4952016;28;20244;-77
2023/02/11 03:47:47;;;;;;;35.93;27.37;;;;;;;;;;4959802;28;20222;-77
2023/02/11 03:50:18;;;;;;;34.10;28.03;;;;;;;;;;4966467;28;20706;-77
2023/02/11 03:52:46;;;;;;;37.17;27.93;;;;;;;;;;4954089;28;20773;-76
2023/02/11 03:55:18;;;;;;;33.07;27.17;;;;;;;;;;4952418;28;20256;-77
2023/02/11 03:57:51;;;;;;;35.77;27.10;;;;;;;;;;4969915;28;20312;-76
2023/02/11 04:00:17;;;;;;;34.67;27.60;;;;;;;;;;4954685;28;20280;-77
2023/02/11 04:02:44;;;;;;;31.73;26.83;;;;;;;;;;4940174;28;20226;-77
2023/02/11 04:05:13;;;;;;;39.37;26.40;;;;;;;;;;4952323;28;20778;-77
2023/02/11 04:07:38;;;;;;;37.13;27.60;;;;;;;;;;4954300;28;20921;-77
2023/02/11 04:10:04;;;;;;;29.53;25.87;;;;;;;;;;4952109;28;20227;-77
2023/02/11 04:12:32;;;;;;;35.10;26.30;;;;;;;;;;4950311;28;20305;-77
2023/02/11 04:14:57;;;;;;;29.93;26.17;;;;;;;;;;4967504;28;20245;-80
2023/02/11 04:17:27;;;;;;;30.53;25.37;;;;;;;;;;4971582;28;20222;-79
2023/02/11 04:19:55;;;;;;;35.17;26.43;;;;;;;;;;4955599;28;20276;-78
2023/02/11 04:22:21;;;;;;;36.17;25.10;;;;;;;;;;4950783;28;20214;-77
2023/02/11 04:24:46;;;;;;;29.10;25.17;;;;;;;;;;4972492;28;20244;-78
2023/02/11 04:27:14;;;;;;;30.43;25.10;;;;;;;;;;4973477;28;20658;-78
2023/02/11 04:29:47;;;;;;;28.53;25.43;;;;;;;;;;4971271;28;20229;-78
2023/02/11 04:32:15;;;;;;;30.03;24.20;;;;;;;;;;4954364;28;20281;-79
2023/02/11 04:34:42;;;;;;;32.03;24.47;;;;;;;;;;4958522;28;20226;-77
2023/02/11 04:37:08;;;;;;;30.23;23.77;;;;;;;;;;4931646;28;20240;-78
2023/02/11 04:39:36;;;;;;;28.77;23.43;;;;;;;;;;4956287;28;20230;-78
2023/02/11 04:42:04;;;;;;;30.37;23.50;;;;;;;;;;4969441;28;20272;-78
2023/02/11 04:44:32;;;;;;;28.53;23.07;;;;;;;;;;5000221;23;20241;-82
2023/02/11 04:46:57;;;;;;;28.60;24.20;;;;;;;;;;4987121;28;20642;-84
2023/02/11 04:49:25;;;;;;;30.23;22.93;;;;;;;;;;4966364;28;20221;-82
2023/02/11 04:51:50;;;;;;;33.97;23.37;;;;;;;;;;5002256;28;20623;-83
2023/02/11 04:54:21;;;;;;;34.00;23.80;;;;;;;;;;4988984;28;20207;-83
2023/02/11 04:56:47;;;;;;;27.67;22.00;;;;;;;;;;4943025;28;20226;-82
2023/02/11 04:59:12;;;;;;;26.63;22.93;;;;;;;;;;4951581;28;20215;-83
2023/02/11 05:01:38;;;;;;;28.77;23.03;;;;;;;;;;4973131;28;20951;-82
2023/02/11 05:04:06;;;;;;;30.00;22.63;;;;;;;;;;4978362;28;21200;-82
2023/02/11 05:06:33;;;;;;;26.07;23.33;;;;;;;;;;4958940;28;20218;-82
2023/02/11 05:08:59;;;;;;;33.73;22.73;;;;;;;;;;4973215;28;20226;-82
2023/02/11 05:11:25;;;;;;;30.07;21.60;;;;;;;;;;4976554;28;20262;-81
2023/02/11 05:13:50;;;;;;;27.50;21.27;;;;;;;;;;4958621;28;20588;-81
2023/02/11 05:16:18;;;;;;;26.40;22.27;;;;;;;;;;4954223;28;20214;-82
2023/02/11 05:18:46;;;;;;;29.87;20.70;;;;;;;;;;4990694;28;20233;-80
2023/02/11 05:21:17;;;;;;;34.67;22.23;;;;;;;;;;4976498;28;20233;-82
2023/02/11 05:23:42;;;;;;;25.47;20.27;;;;;;;;;;4945877;28;20234;-82
2023/02/11 05:26:08;;;;;;;28.87;20.83;;;;;;;;;;4971959;28;20242;-82
2023/02/11 05:28:34;;;;;;;25.90;20.83;;;;;;;;;;4990537;28;20224;-82
2023/02/11 05:31:01;;;;;;;28.43;20.27;;;;;;;;;;4960419;28;21076;-83
2023/02/11 05:33:30;;;;;;;28.70;21.10;;;;;;;;;;4972179;28;20650;-83
2023/02/11 05:36:02;;;;;;;23.93;20.67;;;;;;;;;;4955859;28;20226;-84
2023/02/11 05:38:28;;;;;;;26.77;19.03;;;;;;;;;;4940836;28;20258;-83
2023/02/11 05:40:58;;;;;;;26.30;18.70;;;;;;;;;;4960023;28;20691;-83
2023/02/11 05:43:23;;;;;;;26.23;19.40;;;;;;;;;;4958548;28;20226;-83
2023/02/11 05:45:49;;;;;;;26.20;19.53;;;;;;;;;;4989801;28;20230;-82
2023/02/11 05:48:17;;;;;;;28.30;20.43;;;;;;;;;;4956080;28;20249;-83
2023/02/11 05:50:42;;;;;;;23.43;20.37;;;;;;;;;;5000871;28;20700;-81
2023/02/11 05:53:08;;;;;;;27.17;20.03;;;;;;;;;;4974643;28;20222;-82
2023/02/11 05:55:33;;;;;;;26.50;20.83;;;;;;;;;;4958355;28;20226;-82
2023/02/11 05:58:01;;;;;;;27.50;19.73;;;;;;;;;;4958512;28;20253;-85
2023/02/11 06:00:29;;;;;;;27.63;20.80;;;;;;;;;;4963730;28;20470;-83
2023/02/11 06:02:54;;;;;;;22.77;19.20;;;;;;;;;;4996085;28;20224;-82
2023/02/11 06:05:24;;;;;;;29.40;20.33;;;;;;;;;;4957150;28;20310;-84
2023/02/11 06:07:50;;;;;;;23.50;18.83;;;;;;;;;;4982118;28;20226;-83
2023/02/11 06:10:15;;;;;;;25.33;19.77;;;;;;;;;;4965287;28;20280;-83
2023/02/11 06:12:41;;;;;;;23.73;17.73;;;;;;;;;;4959105;28;20234;-82
2023/02/11 06:15:07;;;;;;;27.27;18.37;;;;;;;;;;5002064;28;20228;-83
2023/02/11 06:17:32;;;;;;;23.50;19.43;;;;;;;;;;4957858;28;20310;-82
2023/02/11 06:20:01;;;;;;;24.23;17.90;;;;;;;;;;4962865;28;20262;-83
2023/02/11 06:22:29;;;;;;;20.90;17.33;;;;;;;;;;4957151;28;20229;-84
2023/02/11 06:24:55;;;;;;;21.80;18.63;;;;;;;;;;4986098;28;20229;-83
2023/02/11 06:27:24;;;;;;;24.17;17.40;;;;;;;;;;4953529;28;20215;-84
2023/02/11 06:29:52;;;;;;;21.10;18.10;;;;;;;;;;4975413;28;20322;-83
2023/02/11 06:32:19;;;;;;;28.10;19.20;;;;;;;;;;4989337;28;20234;-82
2023/02/11 06:34:45;;;;;;;31.37;19.37;;;;;;;;;;4985040;28;20245;-82
2023/02/11 06:37:11;;;;;;;24.50;17.83;;;;;;;;;;5011156;28;20239;-82
2023/02/11 06:39:38;;;;;;;24.33;17.90;;;;;;;;;;4957834;28;20226;-82
2023/02/11 06:42:04;;;;;;;25.67;18.67;;;;;;;;;;4993803;28;21180;-84
2023/02/11 06:44:32;;;;;;;27.27;19.77;;;;;;;;;;4941274;28;20234;-82
2023/02/11 06:46:57;;;;;;;24.00;18.50;;;;;;;;;;4968503;28;20222;-82
2023/02/11 06:49:23;;;;;;;21.60;18.50;;;;;;;;;;4972353;28;20222;-81
2023/02/11 06:51:50;;;;;;;22.13;18.23;;;;;;;;;;4974779;28;20234;-83
2023/02/11 06:54:19;;;;;;;24.60;17.77;;;;;;;;;;4972717;28;20245;-84
2023/02/11 06:56:44;;;;;;;22.70;17.97;;;;;;;;;;4960961;28;20710;-83
2023/02/11 06:59:17;;;;;;;24.80;17.60;;;;;;;;;;4987917;28;20222;-81
2023/02/11 07:01:42;;;;;;;23.33;18.97;;;;;;;;;;4989873;28;20246;-84
2023/02/11 07:04:11;;;;;;;22.37;18.00;;;;;;;;;;4997650;28;20233;-84
2023/02/11 07:06:39;;;;;;;29.10;18.50;;;;;;;;;;4971162;28;20310;-84
2023/02/11 07:09:06;;;;;;;28.50;18.83;;;;;;;;;;4975644;28;20702;-83
2023/02/11 07:11:32;;;;;;;20.87;17.50;;;;;;;;;;4974251;28;20236;-82
2023/02/11 07:14:03;;;;;;;21.30;17.73;;;;;;;;;;4958708;28;20245;-81
2023/02/11 07:16:33;;;;;;;25.90;18.13;;;;;;;;;;4961400;28;20231;-84
2023/02/11 07:18:59;;;;;;;21.77;16.97;;;;;;;;;;4982846;28;21164;-81
2023/02/11 07:21:29;;;;;;;27.33;17.93;;;;;;;;;;4983773;28;20309;-82
2023/02/11 07:23:55;;;;;;;24.00;17.60;;;;;;;;;;5000413;28;20806;-83
2023/02/11 07:26:25;;;;;;;25.37;18.30;;;;;;;;;;4948847;28;20269;-83
2023/02/11 07:28:52;;;;;;;25.80;19.13;;;;;;;;;;4978683;28;20234;-85
2023/02/11 07:31:22;;;;;;;27.93;19.10;;;;;;;;;;4969036;28;20237;-83
2023/02/11 07:33:52;;;;;;;27.97;17.60;;;;;;;;;;4993338;28;20722;-82
2023/02/11 07:36:20;;;;;;;23.80;17.63;;;;;;;;;;4977476;28;20222;-84
2023/02/11 07:38:48;;;;;;;21.90;18.63;;;;;;;;;;4997579;28;20229;-83
2023/02/11 07:41:20;;;;;;;26.70;19.17;;;;;;;;;;4959608;28;20225;-83
2023/02/11 07:43:45;;;;;;;24.83;19.33;;;;;;;;;;4975000;28;20237;-83
2023/02/11 07:46:18;;;;;;;23.50;19.10;;;;;;;;;;4976975;28;20639;-84
2023/02/11 07:48:44;;;;;;;24.40;18.70;;;;;;;;;;4957711;28;20839;-82
2023/02/11 07:51:12;;;;;;;26.77;18.73;;;;;;;;;;4973680;28;20723;-82
2023/02/11 07:53:42;;;;;;;23.90;18.10;;;;;;;;;;4959073;28;20218;-83
2023/02/11 07:56:08;;;;;;;27.30;18.23;;;;;;;;;;4943609;28;20568;-82
2023/02/11 07:58:33;;;;;;;24.87;18.20;;;;;;;;;;4972487;28;20226;-83
2023/02/11 08:01:03;;;;;;;21.60;17.87;;;;;;;;;;4967187;28;20238;-83
2023/02/11 08:03:31;;;;;;;22.80;18.13;;;;;;;;;;4951754;28;20229;-82
2023/02/11 08:05:59;;;;;;;23.57;17.17;;;;;;;;;;4974212;28;20635;-83
2023/02/11 08:08:27;;;;;;;21.63;18.87;;;;;;;;;;4957457;28;20218;-83
2023/02/11 08:10:52;;;;;;;21.50;18.30;;;;;;;;;;4976085;28;20718;-81
2023/02/11 08:13:18;;;;;;;20.63;17.37;;;;;;;;;;4961775;28;20281;-83
2023/02/11 08:15:46;;;;;;;21.67;19.37;;;;;;;;;;4962964;28;20244;-82
2023/02/11 08:18:15;;;;;;;20.73;18.53;;;;;;;;;;4985856;28;20245;-82
2023/02/11 08:20:43;;;;;;;25.40;17.83;;;;;;;;;;4972237;28;20257;-82
2023/02/11 08:23:09;;;;;;;23.83;18.90;;;;;;;;;;4984862;28;20228;-83
2023/02/11 08:25:34;;;;;;;22.93;17.60;;;;;;;;;;4971099;28;20226;-83
2023/02/11 08:28:00;;;;;;;22.57;17.10;;;;;;;;;;4960888;28;20248;-81
2023/02/11 08:30:25;;;;;;;29.50;19.43;;;;;;;;;;4979576;28;20225;-81
2023/02/11 08:32:53;;;;;;;24.83;19.07;;;;;;;;;;4963113;28;20230;-80
2023/02/11 08:35:19;;;;;;;25.07;19.40;;;;;;;;;;4988654;28;20746;-84
2023/02/11 08:37:44;;;;;;;25.27;19.07;;;;;;;;;;4963314;28;20230;-83
2023/02/11 08:40:12;;;;;;;28.07;19.40;;;;;;;;;;4958686;28;20257;-80
2023/02/11 08:42:42;;;;;;;26.93;19.33;;;;;;;;;;4955273;28;20240;-81
2023/02/11 08:45:09;;;;;;;28.23;19.97;;;;;;;;;;4988961;28;20272;-80
2023/02/11 08:47:35;;;;;;;25.77;19.00;;;;;;;;;;4991030;28;20241;-82
2023/02/11 08:50:04;;;;;;;27.10;19.10;;;;;;;;;;4991207;28;20325;-80
2023/02/11 08:52:29;;;;;;;26.47;20.63;;;;;;;;;;4985649;28;20214;-83
2023/02/11 08:54:55;;;;;;;31.73;20.27;;;;;;;;;;4974112;28;20741;-80
2023/02/11 08:57:22;;;;;;;29.80;21.53;;;;;;;;;;4959028;28;20214;-82
2023/02/11 08:59:48;;;;;;;24.47;20.20;;;;;;;;;;4957819;28;20641;-82
2023/02/11 09:02:16;;;;;;;28.37;21.53;;;;;;;;;;4956794;28;20232;-83
2023/02/11 09:04:44;;;;;;;25.97;21.50;;;;;;;;;;4943280;28;20312;-82
2023/02/11 09:07:09;;;;;;;25.57;20.37;;;;;;;;;;4956489;28;20268;-81
2023/02/11 09:09:37;;;;;;;23.90;19.73;;;;;;;;;;4943758;28;20889;-82
2023/02/11 09:12:03;;;;;;;26.63;20.37;;;;;;;;;;4957509;28;20241;-81
2023/02/11 09:14:36;;;;;;;26.53;19.53;;;;;;;;;;4941919;28;20226;-82
2023/02/11 09:17:01;;;;;;;25.60;19.47;;;;;;;;;;4958736;28;20230;-81
2023/02/11 09:19:27;;;;;;;25.07;20.60;;;;;;;;;;4938771;28;20229;-83
2023/02/11 09:21:57;;;;;;;23.97;19.27;;;;;;;;;;4963783;28;20230;-82
2023/02/11 09:24:25;;;;;;;22.97;20.63;;;;;;;;;;4992016;28;20234;-82
2023/02/11 09:26:51;;;;;;;29.07;20.03;;;;;;;;;;4957143;28;20218;-84
2023/02/11 09:29:19;;;;;;;22.93;19.80;;;;;;;;;;4956558;28;20237;-83
2023/02/11 09:31:46;;;;;;;26.40;21.23;;;;;;;;;;4971414;28;20234;-81
2023/02/11 09:34:12;;;;;;;26.37;23.00;;;;;;;;;;4960046;28;20225;-81
2023/02/11 09:36:40;;;;;;;23.30;20.37;;;;;;;;;;4976020;28;20226;-83
2023/02/11 09:39:15;;;;;;;25.90;20.43;;;;;;;;;;4986934;28;20631;-84
2023/02/11 09:41:47;;;;;;;24.87;20.70;;;;;;;;;;4989328;28;20234;-83
2023/02/11 09:44:24;;;;;;;23.90;19.50;;;;;;;;;;4989287;28;20226;-83
2023/02/11 09:46:58;;;;;;;24.90;19.47;;;;;;;;;;4970183;28;20711;-82
2023/02/11 09:49:44;;;;;;;23.50;19.80;;;;;;;;;;4958518;28;20702;-81
2023/02/11 09:52:24;;;;;;;22.90;19.13;;;;;;;;;;4973687;28;20230;-83
2023/02/11 09:54:56;;;;;;;27.37;21.23;;;;;;;;;;5007725;28;20936;-82
2023/02/11 09:57:27;;;;;;;25.33;20.20;;;;;;;;;;4992010;28;20224;-82
2023/02/11 09:59:52;;;;;;;21.93;19.40;;;;;;;;;;4959351;28;20723;-82
2023/02/11 10:02:30;;;;;;;24.27;20.50;;;;;;;;;;4964720;28;20226;-83
2023/02/11 10:05:17;;;;;;;22.93;19.87;;;;;;;;;;4988185;28;20253;-83
2023/02/11 10:08:02;;;;;;;25.07;19.13;;;;;;;;;;4986653;28;20299;-82
2023/02/11 10:10:31;;;;;;;25.63;19.53;;;;;;;;;;4977253;28;20238;-82
2023/02/11 10:13:27;;;;;;;21.60;19.43;;;;;;;;;;4997276;28;20217;-83
2023/02/11 10:16:08;;;;;;;23.60;20.20;;;;;;;;;;4973775;28;20310;-81
2023/02/11 10:19:04;;;;;;;25.03;18.77;;;;;;;;;;4988854;28;20233;-84
2023/02/11 10:21:45;;;;;;;27.83;19.57;;;;;;;;;;5001716;28;20257;-81
2023/02/11 10:24:12;;;;;;;19.57;17.37;;;;;;;;;;4998432;28;20289;-81
2023/02/11 10:26:42;;;;;;;25.50;20.07;;;;;;;;;;4968877;28;20235;-81
2023/02/11 10:29:26;;;;;;;21.73;19.47;;;;;;;;;;4974352;28;20282;-80
2023/02/11 10:31:51;;;;;;;25.10;19.23;;;;;;;;;;5004275;28;20233;-81
2023/02/11 10:34:19;;;;;;;22.07;19.17;;;;;;;;;;4986639;28;20296;-83
2023/02/11 10:36:45;;;;;;;21.97;18.53;;;;;;;;;;4971464;28;20237;-81
2023/02/11 10:39:17;;;;;;;21.60;19.30;;;;;;;;;;4951913;28;20218;-81
2023/02/11 10:41:49;;;;;;;26.67;19.27;;;;;;;;;;4972790;28;20245;-79
2023/02/11 10:44:28;;;;;;;19.50;17.27;;;;;;;;;;4959702;28;20226;-82
2023/02/11 10:46:55;;;;;;;23.00;16.87;;;;;;;;;;4992169;28;20987;-82
2023/02/11 10:49:41;;;;;;;24.00;17.70;;;;;;;;;;4976809;28;20224;-83
2023/02/11 10:52:12;;;;;;;19.30;17.43;;;;;;;;;;4989171;28;20234;-83
2023/02/11 10:54:40;;;;;;;23.13;17.53;;;;;;;;;;4974970;28;20238;-83
2023/02/11 10:57:16;;;;;;;23.73;18.53;;;;;;;;;;4959028;28;20218;-83
2023/02/11 10:59:42;;;;;;;21.67;17.60;;;;;;;;;;4924052;28;20254;-80
2023/02/11 11:02:33;;;;;;;20.47;18.03;;;;;;;;;;4972723;28;20226;-82
2023/02/11 11:05:06;;;;;;;21.33;18.10;;;;;;;;;;4963512;28;20295;-83
2023/02/11 11:07:32;;;;;;;26.80;19.27;;;;;;;;;;4975728;28;20226;-80
2023/02/11 11:10:01;;;;;;;21.13;18.87;;;;;;;;;;4955226;28;20222;-79
2023/02/11 11:12:46;;;;;;;19.43;16.50;;;;;;;;;;5003273;28;20222;-80
2023/02/11 11:15:29;;;;;;;21.50;17.27;;;;;;;;;;5002568;28;20232;-82
2023/02/11 11:18:17;;;;;;;18.80;16.73;;;;;;;;;;4960377;28;20222;-82
2023/02/11 11:21:11;;;;;;;17.73;15.90;;;;;;;;;;5008496;28;20244;-84
2023/02/11 11:23:37;;;;;;;18.60;16.00;;;;;;;;;;4976996;28;20238;-83
2023/02/11 11:26:06;;;;;;;19.53;17.03;;;;;;;;;;4989198;28;20894;-82
2023/02/11 11:28:41;;;;;;;20.33;16.67;;;;;;;;;;4988264;28;20687;-83
2023/02/11 11:31:33;;;;;;;19.27;16.87;;;;;;;;;;4983884;28;20774;-83
2023/02/11 11:34:00;;;;;;;18.07;15.63;;;;;;;;;;4967435;28;20227;-84
2023/02/11 11:36:39;;;;;;;18.80;16.80;;;;;;;;;;4963112;28;20218;-82
2023/02/11 11:39:31;;;;;;;20.27;16.40;;;;;;;;;;4973245;28;20289;-81
2023/02/11 11:42:04;;;;;;;18.27;16.30;;;;;;;;;;4954857;28;20688;-82
2023/02/11 11:44:31;;;;;;;17.87;16.00;;;;;;;;;;4957640;28;20233;-83
2023/02/11 11:47:21;;;;;;;19.13;16.10;;;;;;;;;;4976129;28;20236;-83
2023/02/11 11:49:50;;;;;;;20.87;16.00;;;;;;;;;;4967518;28;20596;-83
2023/02/11 11:52:51;;;;;;;15.63;13.10;;;;;;;;;;4958262;28;20226;-81
2023/02/11 11:55:21;;;;;;;19.97;14.20;;;;;;;;;;4982087;28;20218;-80
2023/02/11 11:57:47;;;;;;;19.20;15.27;;;;;;;;;;4984000;28;20229;-82
2023/02/11 12:00:26;;;;;;;19.07;15.67;;;;;;;;;;4989768;28;20276;-79
2023/02/11 12:03:26;;;;;;;15.40;13.77;;;;;;;;;;4962494;28;20225;-81
2023/02/11 12:06:05;;;;;;;16.73;14.73;;;;;;;;;;4950640;28;20234;-81
2023/02/11 12:08:42;;;;;;;13.90;12.50;;;;;;;;;;4958876;28;20225;-81
2023/02/11 12:11:23;;;;;;;17.10;14.90;;;;;;;;;;5004122;28;20638;-82
2023/02/11 12:13:58;;;;;;;16.33;14.60;;;;;;;;;;4958231;28;20301;-81
2023/02/11 12:16:38;;;;;;;21.70;16.67;;;;;;;;;;4970496;28;20287;-82
2023/02/11 12:19:34;;;;;;;22.30;16.90;;;;;;;;;;4998722;28;20232;-81
2023/02/11 12:22:02;;;;;;;16.30;14.60;;;;;;;;;;4973107;28;20324;-82
2023/02/11 12:24:52;;;;;;;18.00;15.27;;;;;;;;;;4997489;28;20274;-81
2023/02/11 12:27:39;;;;;;;17.67;15.87;;;;;;;;;;4972418;28;20233;-80
2023/02/11 12:30:42;;;;;;;18.00;16.10;;;;;;;;;;4987300;28;20299;-81
2023/02/11 12:33:24;;;;;;;20.83;16.40;;;;;;;;;;5002404;28;20268;-83
2023/02/11 12:36:37;;;;;;;17.33;15.60;;;;;;;;;;4972584;28;20221;-80
2023/02/11 12:39:09;;;;;;;15.37;13.73;;;;;;;;;;4971293;28;20294;-81
2023/02/11 12:45:13;;;;;;;19.07;15.27;;;;;;;;;;4995171;28;20237;-83
2023/02/11 12:48:05;;;;;;;18.23;15.33;;;;;;;;;;4978503;28;20230;-81
2023/02/11 12:51:01;;;;;;;16.57;14.87;;;;;;;;;;4973000;28;20222;-82
2023/02/11 12:53:39;;;;;;;16.33;14.73;;;;;;;;;;5002560;28;20225;-82
2023/02/11 12:56:39;;;;;;;16.77;15.07;;;;;;;;;;4986715;28;20686;-79
2023/02/11 12:59:07;;;;;;;17.93;15.90;;;;;;;;;;4989517;28;20773;-83
2023/02/11 13:01:38;;;;;;;17.33;15.53;;;;;;;;;;4964077;28;20309;-82
2023/02/11 13:04:25;;;;;;;20.73;16.30;;;;;;;;;;4952508;28;20246;-82
2023/02/11 13:06:58;;;;;;;17.23;14.87;;;;;;;;;;4975273;28;20233;-84
2023/02/11 13:09:26;;;;;;;20.43;16.53;;;;;;;;;;4971670;28;20229;-82
2023/02/11 13:11:54;;;;;;;18.30;16.20;;;;;;;;;;4945086;28;20237;-82
2023/02/11 13:14:48;;;;;;;21.37;16.50;;;;;;;;;;4987666;28;20226;-83
2023/02/11 13:17:21;;;;;;;19.03;15.93;;;;;;;;;;4972518;28;20249;-82
2023/02/11 13:19:49;;;;;;;20.87;17.03;;;;;;;;;;4974040;28;20226;-83
2023/02/11 13:22:36;;;;;;;18.37;16.43;;;;;;;;;;4965429;28;20215;-82
2023/02/11 13:25:18;;;;;;;21.30;16.33;;;;;;;;;;4956890;28;20234;-82
2023/02/11 13:27:58;;;;;;;20.90;16.73;;;;;;;;;;4995552;28;20773;-82
2023/02/11 13:30:33;;;;;;;22.13;19.13;;;;;;;;;;4973956;28;20230;-82
2023/02/11 13:33:05;;;;;;;20.87;17.30;;;;;;;;;;4991000;28;20226;-83
2023/02/11 13:35:39;;;;;;;22.47;17.13;;;;;;;;;;4995041;28;20281;-80
2023/02/11 13:38:05;;;;;;;19.10;16.70;;;;;;;;;;4980933;28;20230;-82
2023/02/11 13:40:35;;;;;;;20.40;16.73;;;;;;;;;;4943483;28;20222;-82
2023/02/11 13:43:06;;;;;;;19.63;17.07;;;;;;;;;;4989443;28;20218;-84
2023/02/11 13:45:43;;;;;;;18.43;16.17;;;;;;;;;;4983904;28;20230;-82
2023/02/11 13:48:25;;;;;;;18.17;16.37;;;;;;;;;;4953160;28;20233;-82
2023/02/11 13:50:52;;;;;;;19.20;14.87;;;;;;;;;;5006155;28;20230;-82
2023/02/11 13:53:18;;;;;;;19.33;16.10;;;;;;;;;;4979478;28;20226;-80
2023/02/11 13:55:48;;;;;;;18.50;15.17;;;;;;;;;;4984373;28;20254;-82
2023/02/11 13:58:13;;;;;;;17.93;15.03;;;;;;;;;;4961464;28;20242;-83
2023/02/11 14:00:39;;;;;;;18.43;14.00;;;;;;;;;;5005506;28;20273;-80
2023/02/11 14:08:58;;;;;;;15.47;13.37;;;;;;;;;;4974384;28;20229;-82
2023/02/11 14:11:25;;;;;;;18.40;13.77;;;;;;;;;;4991140;28;20229;-83
2023/02/11 14:13:53;;;;;;;18.30;14.50;;;;;;;;;;4990168;28;20218;-82
2023/02/11 14:16:22;;;;;;;16.20;14.47;;;;;;;;;;4975601;28;20257;-82
2023/02/11 14:18:47;;;;;;;18.63;14.57;;;;;;;;;;4975985;28;20761;-83
2023/02/11 14:21:26;;;;;;;19.30;14.30;;;;;;;;;;4974107;28;20233;-82
2023/02/11 14:24:00;;;;;;;16.60;15.00;;;;;;;;;;5001174;28;20318;-81
2023/02/11 14:26:50;;;;;;;17.80;14.93;;;;;;;;;;4992962;28;20277;-81
2023/02/11 14:29:32;;;;;;;16.57;14.53;;;;;;;;;;4987830;28;20226;-81
2023/02/11 14:32:13;;;;;;;17.13;14.17;;;;;;;;;;4985257;28;20236;-82
2023/02/11 14:34:45;;;;;;;17.93;14.43;;;;;;;;;;4988766;28;20276;-84
2023/02/11 14:37:10;;;;;;;19.80;15.53;;;;;;;;;;4970901;28;20253;-84
2023/02/11 14:39:45;;;;;;;17.37;14.93;;;;;;;;;;4980152;28;20959;-84
2023/02/11 14:42:19;;;;;;;22.57;16.33;;;;;;;;;;4984209;28;20229;-82
2023/02/11 14:44:46;;;;;;;19.23;16.13;;;;;;;;;;4961350;28;20261;-83
2023/02/11 14:47:17;;;;;;;17.73;15.67;;;;;;;;;;4959024;28;20250;-82
2023/02/11 14:49:42;;;;;;;19.40;16.17;;;;;;;;;;4973442;28;20258;-82
2023/02/11 14:52:25;;;;;;;21.70;16.03;;;;;;;;;;5002464;28;20702;-82
2023/02/11 14:54:51;;;;;;;20.27;15.80;;;;;;;;;;5009530;28;20313;-81